Time;durP1;ratioP1;P1;durP2;ratioP2;P2;SDS_P1;SDS_P2;PMS_P1;PMS_P2;Temp;Humidity;BMP_temperature;BMP_pressure;BME280_temperature;BME280_humidity;BME280_pressure;Samples;Min_cycle;Max_cycle;Signal;HPM_P1;HPM_P2
2022/12/18 00:02:03;;;;;;;;;50.75;46.00;;;;;-6.05;71.89;101377.69;4965678;28;46860;-88
2022/12/18 00:04:29;;;;;;;;;38.75;36.25;;;;;-4.30;71.70;101682.66;4962914;28;45180;-89
2022/12/18 00:06:55;;;;;;;;;49.25;41.25;;;;;-4.31;71.91;101670.59;4962304;28;45242;-89
2022/12/18 00:09:21;;;;;;;;;46.00;39.25;;;;;-5.94;71.89;101380.88;4996273;28;45607;-90
2022/12/18 00:11:46;;;;;;;;;45.75;37.75;;;;;-4.34;71.78;101662.63;5000309;28;47284;-90
2022/12/18 00:14:13;;;;;;;;;47.75;40.00;;;;;-4.32;71.63;101658.47;4987011;28;45384;-90
2022/12/18 00:16:39;;;;;;;;;56.00;42.75;;;;;-5.77;71.52;101403.38;4987996;28;45484;-90
2022/12/18 00:19:07;;;;;;;;;50.00;42.75;;;;;-4.36;71.61;101646.16;4984862;28;45406;-88
2022/12/18 00:21:33;;;;;;;;;52.25;43.00;;;;;-5.78;71.26;101416.16;4982845;28;46643;-89
2022/12/18 00:24:00;;;;;;;;;47.75;39.75;;;;;-4.35;72.07;101650.53;4984284;28;45361;-89
2022/12/18 00:26:30;;;;;;;;;50.75;40.50;;;;;-4.35;71.36;101648.84;4980927;28;45307;-90
2022/12/18 00:29:05;;;;;;;;;47.25;40.00;;;;;-6.20;71.74;101346.75;5001724;28;45348;-92
2022/12/18 00:31:33;;;;;;;;;50.00;41.50;;;;;-6.09;71.55;101362.84;4998956;28;46419;-90
2022/12/18 00:33:59;;;;;;;;;48.00;42.00;;;;;-4.35;71.51;101666.91;4995016;28;45423;-88
2022/12/18 00:36:30;;;;;;;;;54.75;42.75;;;;;-4.42;71.36;101646.69;4982863;28;45309;-91
2022/12/18 00:39:01;;;;;;;;;36.50;36.50;;;;;-4.59;71.32;101634.53;4991782;28;45649;-91
2022/12/18 00:44:15;;;;;;;;;50.00;45.25;;;;;-4.82;71.07;101591.09;4984838;28;45270;-91
2022/12/18 00:46:42;;;;;;;;;54.00;41.50;;;;;-4.31;71.70;101681.78;5000224;28;45351;-90
2022/12/18 00:49:08;;;;;;;;;49.25;38.50;;;;;-5.69;71.40;101441.56;5001370;28;44889;-90
2022/12/18 00:51:33;;;;;;;;;36.75;32.50;;;;;-6.62;70.95;101277.38;4984516;28;46971;-89
2022/12/18 00:53:59;;;;;;;;;47.25;40.25;;;;;-4.35;71.18;101658.28;4985145;28;45345;-87
2022/12/18 00:56:24;;;;;;;;;49.50;40.50;;;;;-4.82;71.47;101573.03;4998515;28;45390;-89
2022/12/18 00:58:50;;;;;;;;;44.75;40.00;;;;;-6.55;70.96;101283.78;4987224;28;45234;-90
2022/12/18 01:01:16;;;;;;;;;47.25;45.00;;;;;-5.51;71.25;101447.81;4999915;28;47225;-89
2022/12/18 01:03:42;;;;;;;;;42.50;39.75;;;;;-5.50;72.00;101459.88;4982952;28;45926;-89
2022/12/18 01:06:11;;;;;;;;;49.00;40.50;;;;;-6.80;71.42;101222.28;4993410;28;45475;-90
2022/12/18 01:08:37;;;;;;;;;48.00;39.50;;;;;-4.63;71.21;101612.81;4978266;28;45373;-90
2022/12/18 01:11:12;;;;;;;;;41.00;35.50;;;;;-5.63;71.22;101422.22;4965602;28;47145;-90
2022/12/18 01:13:39;;;;;;;;;42.50;40.00;;;;;-4.32;71.57;101668.78;4978998;28;44667;-90
2022/12/18 01:16:06;;;;;;;;;43.75;35.00;;;;;-4.31;71.39;101643.06;4974665;28;45276;-89
2022/12/18 01:18:32;;;;;;;;;43.00;39.00;;;;;-5.59;71.31;101433.59;4973719;28;45406;-91
2022/12/18 01:20:57;;;;;;;;;49.75;44.25;;;;;-5.58;71.28;101450.84;4988598;28;47097;-90
2022/12/18 01:23:23;;;;;;;;;59.00;48.00;;;;;-4.34;71.49;101639.41;4997163;28;45437;-91
2022/12/18 01:25:48;;;;;;;;;50.00;42.25;;;;;-5.98;71.27;101371.22;4999010;28;45367;-91
2022/12/18 01:28:14;;;;;;;;;51.75;41.25;;;;;-5.03;71.74;101535.66;4981402;28;45394;-89
2022/12/18 01:30:39;;;;;;;;;55.00;45.00;;;;;-5.10;71.16;101518.06;4970149;28;45418;-90
2022/12/18 01:33:05;;;;;;;;;53.25;46.25;;;;;-5.14;71.53;101521.28;4978659;28;45458;-89
2022/12/18 01:35:31;;;;;;;;;49.75;43.25;;;;;-4.38;71.59;101652.94;4979077;28;45640;-89
2022/12/18 01:37:56;;;;;;;;;47.75;42.50;;;;;-4.40;71.40;101655.44;4962171;28;45528;-89
2022/12/18 01:40:22;;;;;;;;;52.50;46.00;;;;;-4.55;71.15;101629.63;4982239;28;47167;-88
2022/12/18 01:42:52;;;;;;;;;51.00;45.25;;;;;-6.22;71.48;101330.34;4996691;28;45317;-89
2022/12/18 01:45:29;;;;;;;;;37.00;32.50;;;;;-5.34;71.55;101513.25;4997574;28;45479;-90
2022/12/18 01:47:59;;;;;;;;;37.25;34.00;;;;;-6.15;71.34;101349.59;5000477;28;45628;-89
2022/12/18 01:50:28;;;;;;;;;48.00;43.25;;;;;-4.92;70.89;101550.09;4977833;28;47984;-91
2022/12/18 01:53:12;;;;;;;;;48.00;41.25;;;;;-4.44;71.81;101637.09;4996341;28;45468;-91
2022/12/18 01:55:50;;;;;;;;;54.00;41.50;;;;;-4.98;71.83;101565.19;4984407;28;45348;-88
2022/12/18 01:58:16;;;;;;;;;53.25;46.00;;;;;-5.84;71.62;101410.66;5001410;28;45338;-90
2022/12/18 02:00:43;;;;;;;;;47.50;42.50;;;;;-5.55;71.35;101481.94;4982935;28;46308;-90
2022/12/18 02:03:09;;;;;;;;;55.00;45.75;;;;;-6.39;71.49;101292.41;4997379;28;45266;-90
2022/12/18 02:06:02;;;;;;;;;61.00;47.00;;;;;-4.46;71.85;101630.16;4998507;28;44829;-91
2022/12/18 02:08:40;;;;;;;;;42.50;40.00;;;;;-4.48;71.56;101623.13;4980717;28;45186;-90
2022/12/18 02:11:20;;;;;;;;;49.00;39.75;;;;;-5.21;72.05;101495.13;4981159;28;47041;-90
2022/12/18 02:13:55;;;;;;;;;55.50;46.50;;;;;-4.52;71.47;101618.59;4965409;28;45471;-91
2022/12/18 02:16:52;;;;;;;;;58.00;40.25;;;;;-4.52;71.70;101604.00;4983525;28;45402;-90
2022/12/18 02:19:36;;;;;;;;;35.75;33.50;;;;;-4.54;71.95;101600.44;4998642;28;45249;-90
2022/12/18 02:22:37;;;;;;;;;49.25;38.75;;;;;-5.06;71.65;101510.59;5005039;28;47362;-90
2022/12/18 02:25:40;;;;;;;;;49.25;43.00;;;;;-4.55;71.47;101603.81;5005336;28;45410;-90
2022/12/18 02:28:15;;;;;;;;;51.75;43.50;;;;;-4.55;71.63;101598.66;4995427;28;45226;-90
2022/12/18 02:30:42;;;;;;;;;56.00;45.75;;;;;-4.94;71.69;101532.75;5005841;28;45407;-89
2022/12/18 02:33:10;;;;;;;;;44.50;40.50;;;;;-4.59;72.17;101596.69;5006334;28;48659;-90
2022/12/18 02:35:39;;;;;;;;;59.00;48.25;;;;;-5.73;71.75;101394.13;4985885;28;45488;-91
2022/12/18 02:38:07;;;;;;;;;51.00;43.00;;;;;-4.59;71.84;101594.09;5000165;28;45426;-90
2022/12/18 02:40:34;;;;;;;;;55.75;42.00;;;;;-4.97;71.80;101540.31;4985255;28;45451;-90
2022/12/18 02:43:11;;;;;;;;;44.50;32.50;;;;;-5.02;71.59;101522.84;4998316;28;46847;-89
2022/12/18 02:45:46;;;;;;;;;44.50;40.50;;;;;-4.56;72.03;101591.69;4973370;28;45982;-89
2022/12/18 02:48:11;;;;;;;;;57.25;45.00;;;;;-6.34;71.36;101284.19;4983650;28;45275;-91
2022/12/18 02:50:58;;;;;;;;;43.25;38.75;;;;;-5.57;71.99;101413.97;4978799;28;45267;-89
2022/12/18 02:53:32;;;;;;;;;52.00;46.75;;;;;-4.56;71.72;101589.13;4988232;28;45547;-90
2022/12/18 02:56:07;;;;;;;;;45.00;39.75;;;;;-4.58;71.97;101567.50;4988060;28;45388;-90
2022/12/18 02:59:10;;;;;;;;;46.25;43.75;;;;;-4.55;72.22;101559.94;4986867;28;45392;-90
2022/12/18 03:02:23;;;;;;;;;51.25;44.50;;;;;-4.56;72.29;101560.72;4986327;28;45349;-90
2022/12/18 03:05:06;;;;;;;;;50.25;39.75;;;;;-5.27;72.06;101443.22;4975515;28;45474;-90
2022/12/18 03:07:42;;;;;;;;;50.75;45.75;;;;;-4.61;72.35;101567.34;4979518;28;45278;-91
2022/12/18 03:10:13;;;;;;;;;50.75;43.75;;;;;-4.87;71.75;101525.44;4981673;28;45412;-90
2022/12/18 03:12:51;;;;;;;;;52.25;39.50;;;;;-4.64;71.82;101557.72;4982328;28;45272;-90
2022/12/18 03:15:24;;;;;;;;;39.25;38.25;;;;;-5.07;72.35;101484.69;5002979;28;48709;-89
2022/12/18 03:18:07;;;;;;;;;42.50;38.00;;;;;-5.31;71.66;101450.66;4990183;28;45261;-89
2022/12/18 03:20:36;;;;;;;;;55.50;45.00;;;;;-5.02;72.12;101504.81;4987645;28;44736;-89
2022/12/18 03:23:11;;;;;;;;;47.00;42.00;;;;;-5.20;71.96;101473.69;4988477;28;45458;-90
2022/12/18 03:25:41;;;;;;;;;49.50;42.00;;;;;-4.62;72.07;101612.00;4986910;28;48505;-90
2022/12/18 03:28:13;;;;;;;;;53.50;43.00;;;;;-6.49;71.58;101262.69;5003750;28;45226;-90
2022/12/18 03:30:41;;;;;;;;;57.25;45.75;;;;;-5.81;71.92;101382.50;4982505;28;45515;-91
2022/12/18 03:33:40;;;;;;;;;45.00;34.75;;;;;-5.18;71.70;101481.50;5001429;28;45306;-90
2022/12/18 03:36:06;;;;;;;;;48.75;41.25;;;;;-4.66;72.12;101567.06;4994250;28;46777;-90
2022/12/18 03:38:32;;;;;;;;;52.00;37.50;;;;;-4.71;71.77;101567.59;5016673;28;45460;-91
2022/12/18 03:41:16;;;;;;;;;35.50;28.50;;;;;-4.75;72.17;101573.38;5018524;28;45319;-92
2022/12/18 03:44:13;;;;;;;;;29.75;25.25;;;;;-4.75;72.47;101568.22;5017931;28;45460;-90
2022/12/18 03:47:00;;;;;;;;;43.50;36.00;;;;;-4.85;72.13;101562.53;5001854;28;47287;-89
2022/12/18 03:49:54;;;;;;;;;42.50;36.50;;;;;-4.91;72.35;101557.00;5016964;28;46316;-91
2022/12/18 03:52:24;;;;;;;;;33.00;28.50;;;;;-4.84;72.24;101546.25;5022383;28;45402;-90
2022/12/18 03:54:51;;;;;;;;;47.00;40.00;;;;;-5.54;72.37;101427.03;5013026;28;45311;-91
2022/12/18 03:57:20;;;;;;;;;56.50;45.00;;;;;-4.86;72.27;101541.81;4995897;28;46890;-91
2022/12/18 03:59:50;;;;;;;;;44.50;39.00;;;;;-4.87;71.97;101548.66;4986404;28;45359;-89
2022/12/18 04:02:17;;;;;;;;;46.50;44.25;;;;;-5.70;72.19;101396.88;5002940;28;45279;-90
2022/12/18 04:04:46;;;;;;;;;49.75;44.50;;;;;-5.58;71.67;101415.63;4999265;28;45464;-91
2022/12/18 04:07:14;;;;;;;;;50.00;43.50;;;;;-5.67;71.65;101383.31;4980661;28;47801;-91
2022/12/18 04:09:41;;;;;;;;;44.25;38.50;;;;;-6.27;72.10;101286.31;4978786;28;45404;-90
2022/12/18 04:12:08;;;;;;;;;47.25;42.25;;;;;-6.19;71.96;101298.75;4984861;28;45379;-90
2022/12/18 04:14:35;;;;;;;;;46.75;39.75;;;;;-4.82;71.75;101525.72;4996030;28;45536;-90
2022/12/18 04:17:01;;;;;;;;;51.00;39.50;;;;;-5.32;71.79;101439.47;4981747;28;47257;-91
2022/12/18 04:19:27;;;;;;;;;49.75;45.75;;;;;-4.82;72.29;101526.59;4982093;28;45395;-91
2022/12/18 04:21:52;;;;;;;;;40.50;32.50;;;;;-5.74;71.89;101377.81;4990806;28;45349;-89
2022/12/18 04:24:18;;;;;;;;;53.00;46.75;;;;;-5.79;72.34;101362.88;4969649;28;45264;-90
2022/12/18 04:26:43;;;;;;;;;54.75;44.50;;;;;-5.71;72.08;101372.81;4972814;28;47083;-88
2022/12/18 04:29:09;;;;;;;;;50.25;41.50;;;;;-5.62;72.22;101389.59;4963975;28;45252;-91
2022/12/18 04:31:34;;;;;;;;;51.50;44.50;;;;;-5.29;72.13;101480.00;4981860;28;45393;-89
2022/12/18 04:34:00;;;;;;;;;55.25;45.75;;;;;-5.75;71.84;101376.00;4979612;28;45421;-90
2022/12/18 04:36:25;;;;;;;;;49.75;43.75;;;;;-6.21;72.09;101296.06;4960755;28;47209;-90
2022/12/18 04:38:51;;;;;;;;;50.25;42.75;;;;;-5.26;71.94;101455.28;4972575;28;45360;-89
2022/12/18 04:41:16;;;;;;;;;54.25;47.00;;;;;-5.97;71.52;101335.25;4978567;28;45272;-90
2022/12/18 04:43:42;;;;;;;;;44.75;39.25;;;;;-6.08;71.72;101336.31;5001340;28;45353;-90
2022/12/18 04:46:08;;;;;;;;;61.75;46.75;;;;;-6.19;72.11;101307.38;4984482;28;47449;-91
2022/12/18 04:48:35;;;;;;;;;39.00;32.50;;;;;-5.65;71.75;101398.03;4984677;28;45359;-91
2022/12/18 04:51:00;;;;;;;;;37.25;35.75;;;;;-5.29;72.11;101468.00;4990186;28;44805;-90
2022/12/18 04:53:26;;;;;;;;;53.50;41.50;;;;;-4.78;72.15;101566.38;4986209;28;45299;-89
2022/12/18 04:56:02;;;;;;;;;49.25;41.25;;;;;-5.68;71.82;101391.81;4983294;28;46646;-90
2022/12/18 04:58:28;;;;;;;;;47.75;39.75;;;;;-7.04;72.18;101154.84;4978738;28;45855;-90
2022/12/18 05:00:53;;;;;;;;;50.50;45.00;;;;;-4.79;72.15;101556.84;4978704;28;45235;-89
2022/12/18 05:03:19;;;;;;;;;40.75;38.50;;;;;-6.69;71.79;101225.47;4979245;28;45306;-90
2022/12/18 05:05:44;;;;;;;;;56.75;42.50;;;;;-5.45;72.19;101443.03;4977850;28;47179;-91
2022/12/18 05:08:09;;;;;;;;;55.50;42.50;;;;;-5.25;71.89;101477.69;4980708;28;45252;-88
2022/12/18 05:10:35;;;;;;;;;48.00;41.00;;;;;-7.42;71.93;101097.75;4981638;28;45226;-90
2022/12/18 05:13:01;;;;;;;;;44.25;36.75;;;;;-5.46;71.78;101445.53;4999067;28;45214;-88
2022/12/18 05:15:39;;;;;;;;;46.25;40.50;;;;;-5.35;71.94;101467.63;4984916;28;46388;-89
2022/12/18 05:18:05;;;;;;;;;54.50;44.75;;;;;-5.86;72.12;101384.81;4985992;28;45930;-88
2022/12/18 05:20:30;;;;;;;;;48.25;37.75;;;;;-4.85;71.60;101552.22;4987440;28;45339;-88
2022/12/18 05:22:56;;;;;;;;;43.00;38.00;;;;;-6.35;71.62;101297.81;4963984;28;45569;-90
2022/12/18 05:25:22;;;;;;;;;41.50;31.75;;;;;-5.96;71.90;101398.81;4997543;28;46811;-88
2022/12/18 05:27:48;;;;;;;;;53.00;44.75;;;;;-6.05;71.78;101356.22;5004938;28;45263;-89
2022/12/18 05:30:15;;;;;;;;;42.75;38.00;;;;;-6.75;72.00;101282.56;5001815;28;44725;-89
2022/12/18 05:32:41;;;;;;;;;58.00;48.00;;;;;-6.40;72.09;101309.53;4993324;28;45424;-88
2022/12/18 05:35:08;;;;;;;;;31.75;26.50;;;;;-6.44;72.07;101310.16;4982239;28;47149;-88
2022/12/18 05:37:34;;;;;;;;;50.00;42.25;;;;;-4.89;72.32;101581.22;4978070;28;45453;-89
2022/12/18 05:39:59;;;;;;;;;53.50;45.00;;;;;-4.89;72.61;101591.53;4978370;28;44910;-88
2022/12/18 05:42:25;;;;;;;;;55.25;43.00;;;;;-5.90;72.17;101422.34;4981070;28;45624;-89
2022/12/18 05:44:51;;;;;;;;;58.25;44.00;;;;;-6.05;71.91;101364.81;5000790;28;48331;-88
2022/12/18 05:47:16;;;;;;;;;44.00;37.50;;;;;-6.28;71.39;101336.00;4987925;28;44826;-89
2022/12/18 05:49:42;;;;;;;;;42.00;39.50;;;;;-5.07;71.88;101541.44;4988560;28;45418;-89
2022/12/18 05:52:08;;;;;;;;;45.75;38.00;;;;;-6.76;71.91;101249.94;4982455;28;45267;-89
2022/12/18 05:54:34;;;;;;;;;49.50;41.00;;;;;-6.70;71.89;101257.13;4984948;28;45309;-88
2022/12/18 05:56:59;;;;;;;;;49.00;42.25;;;;;-4.91;72.22;101557.00;5015125;28;45553;-89
2022/12/18 05:59:25;;;;;;;;;35.25;32.75;;;;;-6.04;72.01;101350.25;4987143;28;45409;-89
2022/12/18 06:01:51;;;;;;;;;45.25;39.50;;;;;-5.41;72.08;101454.41;4981688;28;45505;-88
2022/12/18 06:04:17;;;;;;;;;49.50;40.00;;;;;-5.33;72.19;101466.03;4996987;28;47306;-88
2022/12/18 06:06:42;;;;;;;;;49.00;40.50;;;;;-5.37;72.13;101459.81;4983380;28;45465;-87
2022/12/18 06:09:09;;;;;;;;;46.00;39.00;;;;;-6.26;72.24;101297.50;5001308;28;45357;-88
2022/12/18 06:11:36;;;;;;;;;49.50;44.50;;;;;-6.32;71.88;101292.88;4998407;28;45579;-89
2022/12/18 06:14:04;;;;;;;;;45.00;37.00;;;;;-5.90;72.08;101380.25;4980348;28;46357;-90
2022/12/18 06:16:29;;;;;;;;;42.50;39.00;;;;;-6.61;72.91;101243.13;4983460;28;45325;-90
2022/12/18 06:19:01;;;;;;;;;41.25;33.50;;;;;-6.63;72.08;101242.16;4987343;28;45215;-89
2022/12/18 06:21:28;;;;;;;;;65.75;44.50;;;;;-4.89;72.95;101552.84;4993110;28;45425;-88
2022/12/18 06:23:53;;;;;;;;;43.75;37.00;;;;;-5.58;72.06;101420.78;4993451;28;47036;-90
2022/12/18 06:26:19;;;;;;;;;55.75;43.00;;;;;-6.30;72.43;101299.00;5008100;28;45326;-90
2022/12/18 06:28:48;;;;;;;;;57.50;46.50;;;;;-4.89;72.16;101537.38;4966333;28;45389;-89
2022/12/18 06:31:13;;;;;;;;;37.25;34.25;;;;;-4.87;72.26;101553.81;4997909;28;45506;-90
2022/12/18 06:33:40;;;;;;;;;50.00;45.00;;;;;-5.67;72.12;101415.09;4965242;28;47245;-90
2022/12/18 06:36:10;;;;;;;;;47.75;39.25;;;;;-6.29;71.82;101318.78;4962441;28;45422;-90
2022/12/18 06:38:37;;;;;;;;;36.25;32.25;;;;;-6.31;71.54;101312.66;4979118;28;45666;-90
2022/12/18 06:41:18;;;;;;;;;57.50;43.50;;;;;-5.86;72.46;101376.16;4982047;28;45440;-89
2022/12/18 06:43:44;;;;;;;;;43.75;36.25;;;;;-4.93;71.90;101552.59;4986314;28;47285;-90
2022/12/18 06:46:10;;;;;;;;;46.25;36.75;;;;;-4.89;72.19;101539.97;4988077;28;45167;-90
2022/12/18 06:48:35;;;;;;;;;39.50;34.50;;;;;-7.27;71.80;101154.31;4990234;28;45431;-90
2022/12/18 06:51:03;;;;;;;;;52.25;43.75;;;;;-6.29;72.58;101329.06;5004777;28;45545;-91
2022/12/18 06:53:35;;;;;;;;;42.00;39.00;;;;;-6.37;72.34;101296.84;4985983;28;46479;-93
2022/12/18 06:56:07;;;;;;;;;51.25;44.25;;;;;-6.22;72.61;101301.13;4966182;28;45275;-91
2022/12/18 06:58:33;;;;;;;;;49.25;37.75;;;;;-4.97;72.24;101525.72;4979501;28;45217;-90
2022/12/18 07:01:07;;;;;;;;;48.25;43.25;;;;;-4.96;72.18;101522.34;4979032;28;45386;-92
2022/12/18 07:03:33;;;;;;;;;39.50;35.00;;;;;-6.61;71.92;101231.97;4982722;28;45291;-91
2022/12/18 07:05:59;;;;;;;;;51.25;42.50;;;;;-4.88;72.38;101531.41;4990175;28;45279;-92
2022/12/18 07:08:25;;;;;;;;;45.50;40.50;;;;;-6.13;72.01;101299.13;4994741;28;45372;-89
2022/12/18 07:11:29;;;;;;;;;44.75;36.75;;;;;-6.05;71.67;101323.63;4985631;28;45264;-93
2022/12/18 07:13:56;;;;;;;;;38.50;32.75;;;;;-5.99;72.16;101357.47;4998225;28;45551;-91
2022/12/18 07:16:22;;;;;;;;;59.50;46.25;;;;;-7.26;72.12;101130.38;4984009;28;45292;-91
2022/12/18 07:18:50;;;;;;;;;45.25;42.25;;;;;-5.75;71.98;101385.44;4990612;28;44932;-92
2022/12/18 07:21:20;;;;;;;;;45.50;38.00;;;;;-6.34;72.37;101267.84;5002829;28;45402;-92
2022/12/18 07:23:47;;;;;;;;;53.00;45.25;;;;;-4.98;71.98;101498.13;4985116;28;47239;-91
2022/12/18 07:26:16;;;;;;;;;41.25;36.50;;;;;-6.26;72.14;101300.94;5000088;28;45349;-90
2022/12/18 07:28:42;;;;;;;;;44.75;36.75;;;;;-5.50;72.49;101425.50;4984266;28;44855;-90
2022/12/18 07:31:11;;;;;;;;;47.75;39.25;;;;;-4.94;72.26;101517.28;5010330;28;45199;-91
2022/12/18 07:33:38;;;;;;;;;39.50;33.25;;;;;-6.88;72.23;101169.47;4992186;28;45268;-89
2022/12/18 07:36:06;;;;;;;;;44.50;35.50;;;;;-6.37;72.38;101260.84;4983927;28;45481;-92
2022/12/18 07:38:34;;;;;;;;;45.50;37.75;;;;;-5.02;72.24;101496.19;4981611;28;45366;-91
2022/12/18 07:46:14;;;;;;;;;38.00;31.25;;;;;-5.94;72.05;101389.47;5228178;22;45351;-93
2022/12/18 07:49:09;;;;;;;;;46.50;41.50;;;;;-6.02;72.03;101354.69;5007730;28;45252;-94
2022/12/18 07:51:36;;;;;;;;;45.00;34.50;;;;;-4.91;72.08;101550.97;4989387;28;45234;-92
2022/12/18 07:54:02;;;;;;;;;38.00;33.75;;;;;-6.07;71.54;101345.81;4993265;28;47168;-91
2022/12/18 07:56:28;;;;;;;;;39.50;32.50;;;;;-5.76;72.46;101373.34;5008633;28;45242;-93
2022/12/18 07:58:54;;;;;;;;;43.00;40.50;;;;;-5.61;72.04;101423.19;4985930;28;44883;-92
2022/12/18 08:01:19;;;;;;;;;45.00;41.50;;;;;-5.40;72.39;101431.28;4985305;28;45558;-91
2022/12/18 08:03:48;;;;;;;;;50.25;43.25;;;;;-5.34;72.03;101446.22;4982052;28;47054;-91
2022/12/18 08:06:14;;;;;;;;;40.25;36.25;;;;;-5.69;72.04;101369.44;4963375;28;45906;-88
2022/12/18 08:08:41;;;;;;;;;56.00;47.75;;;;;-4.80;72.19;101518.06;4961307;28;45441;-90
2022/12/18 08:11:13;;;;;;;;;52.75;44.50;;;;;-6.01;72.00;101310.16;4970602;28;45565;-88
2022/12/18 08:13:38;;;;;;;;;46.75;40.50;;;;;-4.77;72.32;101518.22;4978854;28;47256;-89
2022/12/18 08:16:06;;;;;;;;;51.75;40.25;;;;;-5.10;72.33;101461.31;4989397;28;45163;-90
2022/12/18 08:18:33;;;;;;;;;47.25;41.50;;;;;-6.46;71.69;101225.16;4989477;28;44831;-91
2022/12/18 08:21:09;;;;;;;;;47.25;39.50;;;;;-4.69;71.87;101542.75;4985219;28;45418;-88
2022/12/18 08:23:34;;;;;;;;;48.50;39.75;;;;;-6.01;71.83;101312.72;4976700;28;47026;-91
2022/12/18 08:26:00;;;;;;;;;53.25;43.25;;;;;-6.33;71.70;101238.72;4975343;28;45445;-90
2022/12/18 08:28:37;;;;;;;;;49.75;37.75;;;;;-4.55;71.65;101561.66;4997628;28;45383;-90
2022/12/18 08:31:06;;;;;;;;;48.00;37.75;;;;;-5.94;72.43;101296.78;4971117;28;45678;-91
2022/12/18 08:33:32;;;;;;;;;41.50;31.50;;;;;-4.53;72.30;101549.72;4968813;28;47151;-90
2022/12/18 08:35:59;;;;;;;;;39.00;36.75;;;;;-6.57;71.96;101208.22;4975773;28;45391;-92
2022/12/18 08:38:31;;;;;;;;;56.75;47.50;;;;;-5.51;72.03;101378.25;4993146;28;45554;-91
2022/12/18 08:41:01;;;;;;;;;41.75;38.00;;;;;-4.89;71.99;101485.78;4973107;28;45994;-90
2022/12/18 08:46:12;;;;;;;;;46.50;37.50;;;;;-5.32;72.05;101393.06;4962022;28;45554;-91
2022/12/18 08:48:37;;;;;;;;;44.00;41.75;;;;;-5.49;72.60;101342.25;4953603;28;45394;-90
2022/12/18 08:51:03;;;;;;;;;55.25;44.00;;;;;-5.30;71.33;101383.72;4959943;28;45924;-90
2022/12/18 08:53:29;;;;;;;;;47.00;40.50;;;;;-4.96;71.92;101439.81;4963775;28;48539;-91
2022/12/18 08:55:59;;;;;;;;;59.75;45.50;;;;;-5.36;71.99;101389.44;4947979;28;45329;-91
2022/12/18 08:58:25;;;;;;;;;59.25;41.00;;;;;-6.10;71.39;101232.38;4956195;28;45451;-91
2022/12/18 09:00:50;;;;;;;;;40.00;36.00;;;;;-4.12;71.89;101579.53;4964268;28;45328;-91
2022/12/18 09:03:17;;;;;;;;;49.50;41.50;;;;;-5.01;72.10;101405.09;4951669;28;47848;-90
2022/12/18 09:05:46;;;;;;;;;50.50;43.75;;;;;-4.01;71.50;101556.88;4943091;28;45466;-90
2022/12/18 09:08:12;;;;;;;;;43.50;40.00;;;;;-5.62;72.01;101282.28;4942193;28;45584;-88
2022/12/18 09:10:45;;;;;;;;;65.75;45.00;;;;;-6.03;71.85;101177.84;4965602;28;45396;-92
2022/12/18 09:13:11;;;;;;;;;49.75;45.25;;;;;-3.80;71.47;101562.31;4970226;28;45526;-93
2022/12/18 09:15:55;;;;;;;;;55.75;44.50;;;;;-5.45;71.55;101265.22;4968232;28;45032;-94
2022/12/18 09:19:01;;;;;;;;;;;;;;;;;;;;;
2022/12/18 09:21:41;;;;;;;;;51.00;40.75;;;;;-3.65;71.56;101547.63;4975530;28;69828;-93
2022/12/18 09:24:27;;;;;;;;;;;;;;;;;;;;;
2022/12/18 09:27:05;;;;;;;;;56.75;48.75;;;;;-3.55;71.80;101559.38;4978464;28;72159;-92
2022/12/18 09:29:35;;;;;;;;;57.50;48.25;;;;;-5.68;71.25;101181.47;4970395;28;44756;-89
2022/12/18 09:32:01;;;;;;;;;50.75;45.50;;;;;-3.63;71.46;101521.88;4959956;28;45525;-91
2022/12/18 09:34:26;;;;;;;;;43.00;33.50;;;;;-4.65;71.87;101333.13;4961235;28;46293;-91
2022/12/18 09:37:10;;;;;;;;;46.25;41.25;;;;;-4.51;71.42;101345.09;4960057;28;45204;-89
2022/12/18 09:39:44;;;;;;;;;53.50;48.00;;;;;-3.24;70.98;101556.66;4953145;28;45256;-95
2022/12/18 09:42:29;;;;;;;;;51.50;44.25;;;;;-5.73;71.73;101106.50;4954217;28;44794;-92
2022/12/18 09:44:56;;;;;;;;;55.00;47.50;;;;;-4.48;71.57;101314.28;4945234;28;47676;-91
2022/12/18 09:47:36;;;;;;;;;47.50;44.00;;;;;-3.10;71.16;101540.97;4949743;28;45265;-92
2022/12/18 09:50:14;;;;;;;;;43.25;36.00;;;;;-5.39;71.58;101139.25;4951729;28;44619;-93
2022/12/18 09:53:48;;;;;;;;;36.25;32.75;;;;;-3.01;71.41;101535.38;4952202;28;45275;-91
2022/12/18 09:56:18;;;;;;;;;55.25;46.50;;;;;-4.27;71.14;101300.72;4971144;28;45810;-89
2022/12/18 09:59:13;;;;;;;;;;;;;;;;;;;;;
2022/12/18 11:00:30;;;;;;;;;51.50;43.75;;;;;-3.19;70.36;101187.03;5005002;22;45476;-90
2022/12/18 11:02:57;;;;;;;;;50.00;43.25;;;;;-2.08;70.10;101368.03;5008479;28;45251;-91
2022/12/18 11:05:31;;;;;;;;;66.75;50.00;;;;;-2.94;70.15;101204.56;4996435;28;45564;-88
2022/12/18 11:07:58;;;;;;;;;59.50;50.25;;;;;-2.97;70.46;101204.44;4999812;28;46673;-90
2022/12/18 11:10:40;;;;;;;;;61.25;47.25;;;;;-1.40;70.51;101453.03;4995614;28;45726;-90
2022/12/18 11:13:18;;;;;;;;;47.25;40.25;;;;;-3.30;69.99;101121.91;4986245;28;45282;-90
2022/12/18 11:15:44;;;;;;;;;59.75;45.75;;;;;-1.82;70.16;101366.56;4983121;28;45506;-91
2022/12/18 11:18:20;;;;;;;;;58.25;43.25;;;;;-1.07;70.47;101482.97;4998078;28;46361;-89
2022/12/18 11:20:57;;;;;;;;;62.75;48.75;;;;;-1.54;70.32;101396.25;5005649;28;45438;-88
2022/12/18 11:23:25;;;;;;;;;48.00;38.25;;;;;-2.48;69.98;101223.81;4996486;28;45429;-92
2022/12/18 11:26:08;;;;;;;;;52.50;43.75;;;;;-2.53;69.94;101215.00;4988250;28;45449;-89
2022/12/18 11:28:40;;;;;;;;;54.75;44.25;;;;;-2.16;70.33;101261.50;4993651;28;46403;-90
2022/12/18 11:31:20;;;;;;;;;56.50;46.75;;;;;-0.80;70.24;101474.56;4986993;28;45514;-90
2022/12/18 11:34:13;;;;;;;;;51.00;42.50;;;;;-0.80;70.29;101452.94;5001376;28;45031;-89
2022/12/18 11:36:47;;;;;;;;;41.25;35.25;;;;;-2.35;70.42;101202.81;5004285;28;45420;-93
2022/12/18 11:39:49;;;;;;;;;54.75;44.00;;;;;-1.12;70.52;101392.81;4985566;28;46252;-91
2022/12/18 11:42:24;;;;;;;;;47.50;41.25;;;;;-2.58;70.37;101134.53;4963951;28;45567;-87
2022/12/18 11:45:20;;;;;;;;;54.50;44.25;;;;;-0.76;70.51;101445.31;4997187;28;45449;-87
2022/12/18 11:48:21;;;;;;;;;55.75;45.75;;;;;-1.34;70.56;101346.94;4997467;28;45385;-89
2022/12/18 11:50:46;;;;;;;;;59.50;45.50;;;;;-0.70;70.46;101430.78;4983354;28;46099;-91
2022/12/18 11:53:12;;;;;;;;;43.75;39.25;;;;;-0.69;70.60;101425.66;4984087;28;45233;-90
2022/12/18 11:56:26;;;;;;;;;69.00;53.75;;;;;-1.45;70.26;101279.06;4987861;28;45247;-90
2022/12/18 11:59:52;;;;;;;;;;;;;;;;;;;;;
2022/12/18 12:02:47;;;;;;;;;58.00;48.00;;;;;-1.48;70.39;101274.63;4943614;28;74484;-93
2022/12/18 12:06:17;;;;;;;;;54.00;45.00;;;;;-1.91;70.19;101213.28;4938031;28;45408;-92
2022/12/18 12:13:07;;;;;;;;;;;;;;;;;;;;;
2022/12/18 12:20:06;;;;;;;;;;;;;;;;;;;;;
2022/12/18 12:47:04;;;;;;;;;57.00;40.50;;;;;-1.34;69.92;101145.47;4870688;29;44916;-94
2022/12/18 12:50:20;;;;;;;;;56.00;45.75;;;;;-0.03;69.61;101394.38;4856931;29;45567;-93
2022/12/18 12:53:03;;;;;;;;;61.50;47.25;;;;;0.14;70.42;101417.50;4871057;29;45539;-93
2022/12/18 12:56:13;;;;;;;;;46.50;41.50;;;;;-1.82;69.40;101070.22;4869674;28;45347;-92
2022/12/18 12:59:15;;;;;;;;;59.00;45.50;;;;;0.27;69.81;101387.63;4948785;28;45497;-93
2022/12/18 13:02:01;;;;;;;;;58.00;46.75;;;;;0.30;69.61;101382.50;4948041;28;45426;-92
2022/12/18 13:05:28;;;;;;;;;46.00;43.50;;;;;0.30;69.55;101401.59;4955307;28;45507;-92
2022/12/18 13:08:27;;;;;;;;;;;;;;;;;;;;;
2022/12/18 13:14:38;;;;;;;;;44.75;39.25;;;;;0.05;69.74;101315.78;4906594;29;45422;-92
2022/12/18 13:17:54;;;;;;;;;57.50;43.75;;;;;0.43;69.35;101350.03;4911492;29;45242;-92
2022/12/18 13:20:59;;;;;;;;;61.00;44.50;;;;;-1.44;70.04;101031.88;4898721;29;45450;-93
2022/12/18 13:24:03;;;;;;;;;60.75;48.00;;;;;-0.42;69.86;101212.81;4912330;28;45399;-94
2022/12/18 13:26:45;;;;;;;;;57.25;44.00;;;;;0.02;69.93;101295.75;4933871;28;45405;-93
2022/12/18 13:29:52;;;;;;;;;52.50;44.75;;;;;-1.26;70.49;101078.31;4930031;28;45367;-93
2022/12/18 13:56:13;;;;;;;;;51.25;42.75;;;;;0.41;70.59;101316.16;4944454;28;45236;-91
2022/12/18 14:05:39;;;;;;;;;59.00;48.00;;;;;-1.59;70.54;100943.13;4974603;28;44776;-93